PABR METAR and TAF weather

Enter ICAO airport designator
Station Type Date Time Source
PABR METAR 2021/04/14 18:53 UTC NOAA

PABR 141853Z 07010KT 10SM OVC055 M11/M15 A3019 RMK AO2 SLP224 T11111150


Station Type Date Time Source
PABR Decoded METAR 2021/04/14 18:53 UTC NOAA

POST ROGERS MEMORIAL AIRPORT, AK, United States (PABR) 71-17N 156-46W 10M
Apr 14, 2021 - 02:53 PM EDT / 2021.04.14 1853 UTC
Wind: from the ENE (070 degrees) at 12 MPH (10 KT):0
Visibility: 10 mile(s):0
Sky conditions: overcast
Temperature: 12.0 F (-11.1 C)
Windchill: -2 F (-19 C):1
Dew Point: 5.0 F (-15.0 C)
Relative Humidity: 72%
Pressure (altimeter): 30.19 in. Hg (1022 hPa)
ob: PABR 141853Z 07010KT 10SM OVC055 M11/M15 A3019 RMK AO2 SLP224 T11111150
cycle: 19

Station Type Date Time Source
PABR TAF 2021/04/14 18:40 UTC NOAA

TAF PABR 141738Z 1418/1518 06012KT P6SM SCT035 BKN050 OVC100

Example: see airport list